Time;durP1;ratioP1;P1;durP2;ratioP2;P2;SDS_P1;SDS_P2;PMS_P1;PMS_P2;Temp;Humidity;BMP_temperature;BMP_pressure;BME280_temperature;BME280_humidity;BME280_pressure;Samples;Min_cycle;Max_cycle;Signal;HPM_P1;HPM_P2
2022/03/07 02:57:50;;;;;;;32.83;13.00;;;;;;;-2.79;100.00;94308.19;5692234;23;20048;-89
2022/03/07 03:00:16;;;;;;;29.70;11.73;;;;;;;-2.82;100.00;94306.78;4942462;29;20062;-90
2022/03/07 03:02:41;;;;;;;35.58;12.50;;;;;;;-2.85;100.00;94302.03;4960502;29;20036;-88
2022/03/07 03:05:10;;;;;;;27.77;12.23;;;;;;;-2.81;100.00;94307.56;4960646;29;20437;-89
2022/03/07 03:07:54;;;;;;;35.90;12.60;;;;;;;-2.79;100.00;94313.31;4944297;29;20049;-88
2022/03/07 03:10:20;;;;;;;31.83;13.32;;;;;;;-2.81;100.00;94308.38;4944144;29;20046;-89
2022/03/07 03:12:46;;;;;;;31.65;13.02;;;;;;;-2.80;100.00;94309.97;4941378;29;20035;-89
2022/03/07 03:15:12;;;;;;;35.03;12.13;;;;;;;-2.85;100.00;94309.72;4941247;29;20083;-88
2022/03/07 03:17:39;;;;;;;28.77;10.85;;;;;;;-2.81;100.00;94312.69;4941168;29;20024;-89
2022/03/07 03:20:06;;;;;;;31.45;12.60;;;;;;;-2.80;100.00;94311.72;4940627;29;20388;-88
2022/03/07 03:22:32;;;;;;;32.55;12.55;;;;;;;-2.76;100.00;94305.25;4941056;29;20322;-89
2022/03/07 03:24:57;;;;;;;27.00;12.10;;;;;;;-2.79;100.00;94306.41;4925455;29;20032;-88
2022/03/07 03:27:23;;;;;;;29.48;12.00;;;;;;;-2.78;100.00;94309.78;4941120;29;20083;-89
2022/03/07 03:29:49;;;;;;;25.13;11.15;;;;;;;-2.88;100.00;94307.50;4935931;29;20034;-89
2022/03/07 03:32:15;;;;;;;29.55;11.93;;;;;;;-2.88;100.00;94308.31;4960615;29;20039;-89
2022/03/07 03:34:41;;;;;;;27.90;11.93;;;;;;;-2.88;100.00;94313.44;4928444;29;20034;-89
2022/03/07 03:37:07;;;;;;;24.38;11.45;;;;;;;-2.85;100.00;94315.63;4928302;29;20027;-89
2022/03/07 03:39:32;;;;;;;31.48;12.82;;;;;;;-2.79;100.00;94311.53;4928301;29;20082;-89
2022/03/07 03:41:58;;;;;;;28.17;12.07;;;;;;;-2.84;100.00;94319.78;4927887;29;20031;-88
2022/03/07 03:44:23;;;;;;;31.08;12.38;;;;;;;-2.78;100.00;94323.38;4943936;29;20429;-89
2022/03/07 03:46:48;;;;;;;27.92;12.02;;;;;;;-2.91;100.00;94310.44;4944000;29;20039;-89
2022/03/07 03:49:14;;;;;;;28.98;11.18;;;;;;;-2.91;100.00;94318.16;4943948;29;20545;-89
2022/03/07 03:51:39;;;;;;;28.08;11.93;;;;;;;-2.93;100.00;94325.22;4943443;29;20027;-89
2022/03/07 03:54:05;;;;;;;31.33;11.65;;;;;;;-3.05;100.00;94322.38;4944057;29;20121;-89
2022/03/07 03:56:30;;;;;;;30.08;13.25;;;;;;;-3.02;100.00;94317.66;4943631;29;20027;-89
2022/03/07 03:58:56;;;;;;;26.42;11.95;;;;;;;-3.04;100.00;94314.47;4927586;29;20093;-89
2022/03/07 04:01:21;;;;;;;27.85;12.20;;;;;;;-3.01;100.00;94313.31;4927781;29;20054;-89
2022/03/07 04:03:47;;;;;;;28.55;12.57;;;;;;;-3.05;100.00;94312.13;4943534;29;20031;-89
2022/03/07 04:06:12;;;;;;;31.77;12.98;;;;;;;-2.94;100.00;94303.13;4927785;29;20028;-88
2022/03/07 04:08:53;;;;;;;30.35;11.95;;;;;;;-3.12;100.00;94319.75;4943460;29;20031;-88
2022/03/07 04:11:20;;;;;;;28.60;12.05;;;;;;;-3.12;100.00;94314.63;4943327;29;20031;-89
2022/03/07 04:13:46;;;;;;;31.92;12.73;;;;;;;-3.11;100.00;94321.34;4943392;29;20031;-89
2022/03/07 04:16:11;;;;;;;31.67;12.65;;;;;;;-3.09;100.00;94323.69;4927642;29;20062;-90
2022/03/07 04:18:37;;;;;;;28.52;12.15;;;;;;;-3.08;100.00;94312.50;4927370;29;20031;-89
2022/03/07 04:21:02;;;;;;;36.83;13.65;;;;;;;-3.10;100.00;94322.09;4959192;29;20042;-89
2022/03/07 04:23:28;;;;;;;29.90;13.20;;;;;;;-3.03;100.00;94313.50;4927269;29;20066;-88
2022/03/07 04:25:53;;;;;;;32.80;13.48;;;;;;;-3.19;100.00;94321.44;4943074;29;20039;-89
2022/03/07 04:28:24;;;;;;;38.15;14.43;;;;;;;-3.22;100.00;94316.69;4927423;29;20377;-89
2022/03/07 04:30:49;;;;;;;36.65;14.93;;;;;;;-3.25;100.00;94320.41;4927130;29;20348;-88
2022/03/07 04:33:15;;;;;;;43.75;15.48;;;;;;;-3.23;100.00;94327.91;4958758;29;20042;-89
2022/03/07 04:35:41;;;;;;;35.22;13.63;;;;;;;-3.20;100.00;94325.78;4943414;29;20301;-88
2022/03/07 04:38:06;;;;;;;38.40;15.18;;;;;;;-3.27;100.00;94312.09;4942745;29;20339;-89
2022/03/07 04:40:31;;;;;;;41.53;13.45;;;;;;;-3.29;100.00;94316.63;4926659;29;20035;-89
2022/03/07 04:42:57;;;;;;;31.63;13.70;;;;;;;-3.21;100.00;94313.13;4958796;29;20034;-89
2022/03/07 04:45:23;;;;;;;38.33;14.50;;;;;;;-3.24;100.00;94318.63;4943075;29;20031;-89
2022/03/07 04:47:49;;;;;;;37.00;14.38;;;;;;;-3.11;100.00;94318.78;4927224;29;20035;-89
2022/03/07 04:50:14;;;;;;;33.72;14.70;;;;;;;-3.03;100.00;94323.75;4958481;29;20031;-89
2022/03/07 04:52:42;;;;;;;37.65;14.05;;;;;;;-2.97;100.00;94321.44;4958663;29;20372;-89
2022/03/07 04:55:09;;;;;;;32.95;13.77;;;;;;;-3.09;100.00;94314.25;4942371;29;20027;-89
2022/03/07 04:57:35;;;;;;;29.48;13.27;;;;;;;-3.12;100.00;94327.44;4926870;29;20054;-89
2022/03/07 05:00:00;;;;;;;39.25;15.07;;;;;;;-3.12;100.00;94335.91;4942683;29;20126;-89
2022/03/07 05:02:26;;;;;;;30.92;12.98;;;;;;;-3.17;100.00;94332.28;4925523;29;20027;-89
2022/03/07 05:04:51;;;;;;;34.58;13.80;;;;;;;-3.23;100.00;94325.34;4942519;29;20027;-89
2022/03/07 05:07:17;;;;;;;33.33;13.23;;;;;;;-3.36;100.00;94331.91;4958537;29;20034;-90
2022/03/07 05:09:44;;;;;;;30.95;13.27;;;;;;;-3.32;100.00;94332.34;4957102;28;20325;-89
2022/03/07 05:12:10;;;;;;;37.85;15.15;;;;;;;-3.37;100.00;94332.91;4942792;29;20027;-89
2022/03/07 05:14:36;;;;;;;33.58;14.27;;;;;;;-3.37;100.00;94332.91;4958285;29;20031;-89
2022/03/07 05:17:01;;;;;;;33.20;14.07;;;;;;;-3.35;100.00;94333.50;4958296;29;20034;-88
2022/03/07 05:19:27;;;;;;;35.90;13.32;;;;;;;-3.39;100.00;94334.84;4957919;29;20444;-89
2022/03/07 05:21:52;;;;;;;32.72;12.77;;;;;;;-3.25;100.00;94330.63;4958227;29;20027;-89
2022/03/07 05:24:18;;;;;;;32.67;13.30;;;;;;;-3.25;100.00;94333.22;4942245;29;20026;-88
2022/03/07 05:26:43;;;;;;;38.25;14.30;;;;;;;-3.14;100.00;94330.16;4942386;29;20042;-90
2022/03/07 05:29:31;;;;;;;32.67;13.98;;;;;;;-3.21;100.00;94334.44;4941900;29;20126;-89
2022/03/07 05:31:57;;;;;;;37.38;14.10;;;;;;;-3.15;100.00;94328.59;4941928;29;20369;-89
2022/03/07 05:34:22;;;;;;;33.85;13.80;;;;;;;-3.20;100.00;94330.09;4942128;29;20030;-89
2022/03/07 05:36:48;;;;;;;35.03;13.70;;;;;;;-3.14;100.00;94329.38;4958531;29;20026;-89
2022/03/07 05:39:36;;;;;;;33.40;13.00;;;;;;;-3.15;100.00;94333.72;4957864;29;20058;-88
2022/03/07 05:42:02;;;;;;;31.08;13.43;;;;;;;-3.16;100.00;94333.88;4958476;29;20023;-88
2022/03/07 05:44:28;;;;;;;29.48;13.00;;;;;;;-3.13;100.00;94336.88;4957808;29;20046;-88
2022/03/07 05:46:53;;;;;;;34.53;13.07;;;;;;;-3.23;100.00;94335.59;4958896;29;20031;-88
2022/03/07 05:49:19;;;;;;;30.42;13.07;;;;;;;-3.20;100.00;94337.78;4957700;29;20109;-88
2022/03/07 05:51:46;;;;;;;29.35;13.85;;;;;;;-3.07;100.00;94337.16;4957303;29;20027;-87
2022/03/07 05:54:12;;;;;;;29.55;12.85;;;;;;;-3.00;100.00;94338.78;4958841;29;20341;-88
2022/03/07 05:56:37;;;;;;;39.58;13.52;;;;;;;-2.92;100.00;94335.31;4941887;29;20038;-88
2022/03/07 05:59:03;;;;;;;34.88;14.18;;;;;;;-3.02;100.00;94343.28;4941827;29;20070;-88
2022/03/07 06:01:28;;;;;;;35.17;14.05;;;;;;;-2.97;100.00;94347.88;4958296;29;20032;-88
2022/03/07 06:03:54;;;;;;;29.30;13.07;;;;;;;-2.97;100.00;94354.78;4940768;29;20058;-89
2022/03/07 06:06:19;;;;;;;31.60;13.82;;;;;;;-2.94;100.00;94350.09;4957636;29;20035;-90
2022/03/07 06:08:45;;;;;;;35.05;13.98;;;;;;;-3.02;100.00;94353.53;4957287;29;20035;-89
2022/03/07 06:11:10;;;;;;;46.53;15.50;;;;;;;-2.99;100.00;94360.88;4941411;29;20059;-88
2022/03/07 06:13:35;;;;;;;35.25;14.48;;;;;;;-2.86;100.00;94355.06;4941790;29;20321;-89
2022/03/07 06:16:01;;;;;;;35.13;13.85;;;;;;;-2.88;100.00;94359.59;4941707;29;20028;-89
2022/03/07 06:18:26;;;;;;;33.83;15.00;;;;;;;-2.79;100.00;94355.13;4941756;29;20027;-88
2022/03/07 06:20:52;;;;;;;36.15;13.23;;;;;;;-2.68;100.00;94360.75;4958285;28;20105;-88
2022/03/07 06:23:18;;;;;;;36.65;13.18;;;;;;;-2.66;100.00;94357.00;4961310;29;20038;-88
2022/03/07 06:25:43;;;;;;;38.50;14.15;;;;;;;-2.68;100.00;94361.53;4945364;29;20023;-88
2022/03/07 06:28:09;;;;;;;34.97;13.35;;;;;;;-2.61;100.00;94361.59;4961270;29;20034;-88
2022/03/07 06:30:34;;;;;;;35.30;14.73;;;;;;;-2.55;100.00;94363.44;4960787;29;20035;-88
2022/03/07 06:33:00;;;;;;;31.45;13.77;;;;;;;-2.50;100.00;94365.44;4945406;29;20035;-89
2022/03/07 06:35:25;;;;;;;35.10;14.55;;;;;;;-2.38;100.00;94363.16;4944997;29;20031;-88
2022/03/07 06:37:52;;;;;;;35.50;14.73;;;;;;;-2.32;100.00;94375.25;4961095;29;20027;-88
2022/03/07 06:40:18;;;;;;;34.90;14.30;;;;;;;-2.17;100.00;94375.94;4944949;29;20065;-90
2022/03/07 06:42:44;;;;;;;29.83;13.82;;;;;;;-2.10;100.00;94380.34;4960807;29;20053;-90
2022/03/07 06:45:14;;;;;;;34.53;14.10;;;;;;;-2.09;100.00;94385.25;4929196;29;20070;-90
2022/03/07 06:47:40;;;;;;;34.30;14.40;;;;;;;-1.90;100.00;94388.94;4929443;29;20035;-89
2022/03/07 06:50:06;;;;;;;32.35;14.13;;;;;;;-1.82;100.00;94392.34;4944972;29;20042;-90
2022/03/07 06:52:31;;;;;;;32.35;14.02;;;;;;;-1.82;100.00;94397.50;4944709;29;20027;-90
2022/03/07 06:54:57;;;;;;;34.92;14.73;;;;;;;-1.62;100.00;94395.81;4960543;29;20458;-89
2022/03/07 06:57:23;;;;;;;26.38;12.88;;;;;;;-1.63;100.00;94401.16;4944726;29;20487;-90
2022/03/07 06:59:49;;;;;;;38.20;14.30;;;;;;;-1.47;100.00;94405.16;4960486;29;20027;-89
2022/03/07 07:02:15;;;;;;;30.08;13.13;;;;;;;-1.36;100.00;94411.53;4944875;29;20062;-90
2022/03/07 07:04:40;;;;;;;30.70;14.07;;;;;;;-1.31;100.00;94409.97;4944948;29;20042;-89
2022/03/07 07:07:06;;;;;;;36.38;14.63;;;;;;;-1.12;100.00;94419.75;4960682;29;20035;-90
2022/03/07 07:09:31;;;;;;;37.08;14.13;;;;;;;-1.15;100.00;94414.00;4944606;29;20031;-90
2022/03/07 07:11:57;;;;;;;28.75;13.35;;;;;;;-0.98;100.00;94420.59;4928326;29;20061;-89
2022/03/07 07:14:22;;;;;;;35.55;14.00;;;;;;;-1.02;100.00;94417.63;4928773;29;20066;-89
2022/03/07 07:16:48;;;;;;;30.58;13.40;;;;;;;-0.94;100.00;94425.13;4944557;29;20039;-89
2022/03/07 07:19:14;;;;;;;27.58;12.82;;;;;;;-0.78;100.00;94424.00;4960381;29;20031;-89
2022/03/07 07:21:40;;;;;;;29.05;14.32;;;;;;;-0.72;100.00;94428.41;4944561;29;20034;-90
2022/03/07 07:24:06;;;;;;;29.95;12.85;;;;;;;-0.76;100.00;94426.41;4959964;29;20031;-89
2022/03/07 07:26:32;;;;;;;33.53;14.18;;;;;;;-0.58;100.00;94431.78;4944314;29;20432;-89
2022/03/07 07:28:57;;;;;;;32.42;14.23;;;;;;;-0.63;100.00;94435.91;4944363;29;20031;-89
2022/03/07 07:31:23;;;;;;;30.52;14.32;;;;;;;-0.48;100.00;94440.91;4943814;29;20344;-90
2022/03/07 07:33:49;;;;;;;35.70;14.73;;;;;;;-0.49;100.00;94434.94;4959287;28;20326;-90
2022/03/07 07:36:14;;;;;;;33.30;15.05;;;;;;;-0.45;100.00;94441.28;4943979;29;20027;-90
2022/03/07 07:38:54;;;;;;;37.45;14.80;;;;;;;-0.47;100.00;94434.75;4944227;29;20031;-89
2022/03/07 07:41:19;;;;;;;35.10;15.32;;;;;;;-0.30;100.00;94435.97;4959593;29;20381;-90
2022/03/07 07:43:45;;;;;;;29.55;14.85;;;;;;;-0.20;100.00;94439.94;4943621;29;20031;-89
2022/03/07 07:46:10;;;;;;;35.20;15.60;;;;;;;-0.27;100.00;94445.09;4943990;29;20027;-89
2022/03/07 07:48:36;;;;;;;34.00;14.65;;;;;;;-0.19;100.00;94446.66;4959831;29;20058;-89
2022/03/07 07:51:01;;;;;;;35.53;15.13;;;;;;;0.00;100.00;94447.66;4959265;29;20027;-89
2022/03/07 07:53:27;;;;;;;33.00;14.93;;;;;;;-0.02;100.00;94450.44;4960007;29;20329;-89
2022/03/07 07:55:52;;;;;;;34.25;14.90;;;;;;;0.11;100.00;94456.56;4959654;29;20027;-89
2022/03/07 07:58:17;;;;;;;31.80;14.70;;;;;;;0.09;100.00;94449.03;4943759;29;20031;-89
2022/03/07 08:00:43;;;;;;;37.83;14.95;;;;;;;0.23;100.00;94457.56;4927652;29;20027;-89
2022/03/07 08:03:08;;;;;;;33.90;15.25;;;;;;;0.38;100.00;94454.75;4959526;29;20027;-89
2022/03/07 08:05:34;;;;;;;27.88;13.85;;;;;;;0.22;100.00;94450.03;4927900;29;20031;-89
2022/03/07 08:07:59;;;;;;;32.90;14.10;;;;;;;0.28;100.00;94452.59;4959789;29;20050;-89
2022/03/07 08:11:12;;;;;;;30.83;14.27;;;;;;;0.55;100.00;94456.91;4959017;29;20030;-89
2022/03/07 08:13:37;;;;;;;31.52;14.57;;;;;;;0.72;100.00;94453.88;4943155;29;20030;-89
2022/03/07 08:16:03;;;;;;;29.90;13.18;;;;;;;0.84;100.00;94458.22;4959360;29;20020;-88
2022/03/07 08:18:28;;;;;;;37.22;14.45;;;;;;;1.04;100.00;94459.16;4960378;29;20023;-89
2022/03/07 08:20:56;;;;;;;28.27;13.02;;;;;;;1.00;100.00;94461.34;4943041;29;20030;-89
2022/03/07 08:23:22;;;;;;;29.95;13.25;;;;;;;1.22;100.00;94455.88;4959371;29;20121;-89
2022/03/07 08:25:47;;;;;;;29.52;13.55;;;;;;;1.27;100.00;94458.63;4943344;29;20427;-89
2022/03/07 08:28:12;;;;;;;26.70;13.55;;;;;;;1.55;100.00;94465.25;4943376;29;20071;-89
2022/03/07 08:30:38;;;;;;;30.85;13.27;;;;;;;1.49;100.00;94466.88;4942945;29;20027;-89
2022/03/07 08:33:03;;;;;;;28.98;11.65;;;;;;;1.54;100.00;94459.28;4943525;29;20391;-89
2022/03/07 08:35:29;;;;;;;26.95;13.07;;;;;;;1.64;100.00;94461.41;4943200;29;20019;-89
2022/03/07 08:37:54;;;;;;;33.55;13.60;;;;;;;1.41;100.00;94464.50;4958939;29;20081;-88
2022/03/07 08:40:21;;;;;;;28.85;12.88;;;;;;;1.44;100.00;94469.28;4942620;29;20083;-89
2022/03/07 08:42:47;;;;;;;24.38;11.65;;;;;;;1.40;100.00;94471.47;4958872;29;20023;-89
2022/03/07 08:45:13;;;;;;;28.23;12.82;;;;;;;1.45;100.00;94468.28;4941644;29;20031;-89
2022/03/07 08:47:40;;;;;;;29.08;12.73;;;;;;;1.26;100.00;94468.16;4927061;29;20038;-89
2022/03/07 08:50:08;;;;;;;24.83;12.55;;;;;;;0.84;100.00;94465.97;4942517;29;20054;-90
2022/03/07 08:52:34;;;;;;;26.60;13.15;;;;;;;0.62;100.00;94464.63;4959524;29;20432;-89
2022/03/07 08:55:00;;;;;;;27.08;11.95;;;;;;;0.99;100.00;94463.13;4942738;29;20030;-89
2022/03/07 08:57:26;;;;;;;29.15;12.55;;;;;;;0.98;100.00;94471.84;4926827;29;20029;-89
2022/03/07 08:59:51;;;;;;;27.85;13.38;;;;;;;1.01;100.00;94462.91;4959396;29;20034;-88
2022/03/07 09:02:16;;;;;;;32.47;13.10;;;;;;;1.26;100.00;94463.00;4942447;29;20118;-89
2022/03/07 09:04:42;;;;;;;27.30;12.75;;;;;;;1.08;100.00;94462.88;4958066;29;20027;-89
2022/03/07 09:07:08;;;;;;;29.95;12.50;;;;;;;1.20;100.00;94463.03;4942812;29;20038;-90
2022/03/07 09:09:34;;;;;;;28.05;12.63;;;;;;;1.48;100.00;94470.44;4926262;29;20392;-89
2022/03/07 09:12:04;;;;;;;28.15;13.07;;;;;;;1.76;100.00;94471.88;4957994;29;20030;-90
2022/03/07 09:14:30;;;;;;;29.65;13.18;;;;;;;1.44;98.70;94463.31;4942042;29;20027;-89
2022/03/07 09:16:55;;;;;;;31.45;14.02;;;;;;;1.59;100.00;94468.22;4942403;29;20034;-89
2022/03/07 09:19:21;;;;;;;31.30;13.80;;;;;;;1.68;100.00;94469.53;4942697;29;20023;-89
2022/03/07 09:21:47;;;;;;;25.70;12.93;;;;;;;1.89;100.00;94470.19;4942110;29;20019;-89
2022/03/07 09:24:12;;;;;;;27.95;13.10;;;;;;;1.93;100.00;94466.97;4942048;29;20058;-89
2022/03/07 09:26:38;;;;;;;30.20;13.50;;;;;;;1.87;100.00;94461.88;4957977;29;20066;-89
2022/03/07 09:29:04;;;;;;;32.30;13.68;;;;;;;2.16;100.00;94459.66;4942187;29;20027;-89
2022/03/07 09:31:29;;;;;;;30.02;13.05;;;;;;;2.34;93.21;94462.28;4941341;29;20176;-90
2022/03/07 09:33:55;;;;;;;29.40;12.88;;;;;;;2.25;82.96;94455.78;4941881;29;20035;-89
2022/03/07 09:36:21;;;;;;;31.02;13.38;;;;;;;2.16;89.58;94455.28;4942038;29;20026;-89
2022/03/07 09:39:06;;;;;;;28.17;12.48;;;;;;;2.26;89.78;94460.75;4942148;29;20023;-89
2022/03/07 09:41:31;;;;;;;27.50;13.10;;;;;;;2.04;81.43;94454.38;4938474;29;20038;-89
2022/03/07 09:43:57;;;;;;;30.30;13.35;;;;;;;1.92;83.67;94454.28;4954546;29;20031;-90
2022/03/07 09:46:22;;;;;;;31.23;13.15;;;;;;;1.63;87.69;94459.03;4954773;29;20070;-89
2022/03/07 09:48:48;;;;;;;28.75;13.07;;;;;;;1.86;94.53;94458.50;4938719;29;20119;-89
2022/03/07 09:51:13;;;;;;;31.23;13.50;;;;;;;2.15;97.23;94458.06;4938799;29;20325;-90
2022/03/07 09:53:39;;;;;;;26.05;12.20;;;;;;;2.53;96.00;94455.34;4938539;29;20035;-90
2022/03/07 09:56:05;;;;;;;28.13;13.13;;;;;;;2.70;90.51;94459.94;4954198;28;20087;-89
2022/03/07 09:58:31;;;;;;;29.75;13.32;;;;;;;2.43;93.74;94454.22;4938430;29;20078;-89
2022/03/07 10:01:13;;;;;;;30.20;12.90;;;;;;;2.61;89.16;94456.88;4922421;29;20090;-89
2022/03/07 10:03:39;;;;;;;25.15;11.98;;;;;;;2.93;76.14;94468.84;4938287;29;20459;-89
2022/03/07 10:06:16;;;;;;;24.25;11.05;;;;;;;2.66;70.84;94475.09;4946951;29;20046;-90
2022/03/07 10:08:59;;;;;;;27.15;11.90;;;;;;;2.36;71.00;94477.56;4941332;29;20030;-89
2022/03/07 10:11:25;;;;;;;32.35;12.52;;;;;;;2.69;70.10;94471.31;4956963;29;20032;-90
2022/03/07 10:14:02;;;;;;;27.88;12.25;;;;;;;2.63;68.90;94478.13;4957301;29;20027;-89
2022/03/07 10:16:44;;;;;;;26.88;12.85;;;;;;;2.69;72.24;94472.09;4957484;29;20031;-90
2022/03/07 10:19:14;;;;;;;26.30;12.35;;;;;;;2.67;71.85;94465.56;4941140;29;20035;-90
2022/03/07 10:21:48;;;;;;;25.10;13.25;;;;;;;2.60;73.57;94465.63;4941283;29;20060;-89
2022/03/07 10:24:14;;;;;;;26.15;12.88;;;;;;;3.04;75.50;94475.91;4941491;29;20028;-89
2022/03/07 10:26:40;;;;;;;29.20;12.48;;;;;;;3.44;77.08;94473.84;4957401;29;20082;-90
2022/03/07 10:29:06;;;;;;;26.50;12.98;;;;;;;3.44;69.80;94479.78;4941607;29;20035;-89
2022/03/07 10:31:32;;;;;;;27.05;13.18;;;;;;;3.87;73.08;94474.63;4941385;29;20118;-90
2022/03/07 10:34:00;;;;;;;26.80;12.35;;;;;;;4.07;70.66;94471.75;4925802;29;20368;-90
2022/03/07 10:36:40;;;;;;;23.90;11.32;;;;;;;4.54;71.29;94471.00;4941281;29;20031;-89
2022/03/07 10:39:08;;;;;;;25.08;11.77;;;;;;;4.51;70.32;94474.81;4941880;29;20313;-89
2022/03/07 10:41:42;;;;;;;24.00;12.35;;;;;;;4.65;62.82;94470.22;4925328;29;20041;-89
2022/03/07 10:44:10;;;;;;;23.83;11.65;;;;;;;4.22;62.34;94468.75;4925631;29;20074;-89
2022/03/07 10:46:36;;;;;;;25.58;12.27;;;;;;;4.75;61.28;94461.84;4925782;29;20077;-90
2022/03/07 10:49:02;;;;;;;23.95;12.07;;;;;;;4.98;57.60;94468.03;4925629;29;20027;-90
2022/03/07 10:51:32;;;;;;;28.75;12.48;;;;;;;5.37;59.07;94472.66;4940942;29;20035;-90
2022/03/07 10:54:08;;;;;;;21.85;10.98;;;;;;;4.83;53.87;94471.09;4941147;29;20400;-89
2022/03/07 10:56:34;;;;;;;21.73;11.00;;;;;;;4.84;57.78;94462.28;4941653;29;20126;-89
2022/03/07 10:58:59;;;;;;;25.67;11.65;;;;;;;5.11;55.51;94458.41;4925389;29;20141;-89
2022/03/07 11:01:30;;;;;;;32.45;11.80;;;;;;;5.64;58.87;94466.91;4940914;29;20456;-90
2022/03/07 11:03:56;;;;;;;21.80;11.65;;;;;;;5.50;60.64;94464.59;4925233;29;20495;-90
2022/03/07 11:06:23;;;;;;;27.95;13.27;;;;;;;4.55;59.78;94464.78;4940941;28;20460;-89
2022/03/07 11:08:48;;;;;;;21.92;11.90;;;;;;;4.14;57.08;94459.47;4943909;29;20031;-89
2022/03/07 11:11:14;;;;;;;23.00;11.82;;;;;;;3.64;56.92;94471.00;4928630;29;20038;-90
2022/03/07 11:13:41;;;;;;;27.58;12.68;;;;;;;3.34;57.39;94464.00;4944336;29;20034;-89
2022/03/07 11:16:06;;;;;;;24.75;12.07;;;;;;;3.13;60.35;94450.50;4928783;29;20023;-89
2022/03/07 11:18:32;;;;;;;23.38;12.05;;;;;;;3.18;60.02;94452.44;4928458;29;20046;-89
2022/03/07 11:20:59;;;;;;;23.45;12.10;;;;;;;3.14;58.61;94444.31;4944463;29;20027;-90
2022/03/07 11:23:25;;;;;;;26.45;12.73;;;;;;;2.91;58.73;94443.19;4944472;29;20063;-89
2022/03/07 11:25:53;;;;;;;26.27;11.93;;;;;;;3.13;59.17;94445.31;4944576;29;20474;-89
2022/03/07 11:28:22;;;;;;;23.70;11.60;;;;;;;3.68;58.90;94443.63;4944391;29;20027;-90
2022/03/07 11:30:47;;;;;;;29.00;12.85;;;;;;;3.61;58.23;94453.28;4927870;29;20039;-90
2022/03/07 11:33:13;;;;;;;26.77;13.48;;;;;;;3.02;60.70;94441.69;4944068;29;20337;-89
2022/03/07 11:35:47;;;;;;;28.33;12.13;;;;;;;3.73;61.99;94435.97;4959784;29;20135;-89
2022/03/07 11:38:17;;;;;;;24.20;12.00;;;;;;;3.74;58.62;94431.56;4944553;29;20066;-89
2022/03/07 11:40:56;;;;;;;23.95;11.88;;;;;;;3.09;58.03;94431.25;4944047;29;20030;-89
2022/03/07 11:43:24;;;;;;;23.92;12.93;;;;;;;3.37;60.84;94424.72;4944113;29;20348;-89
2022/03/07 11:45:50;;;;;;;23.27;11.88;;;;;;;3.43;60.42;94423.81;4943976;29;20055;-89
2022/03/07 11:48:16;;;;;;;25.58;12.70;;;;;;;3.45;61.56;94418.44;4943914;29;20702;-89
2022/03/07 11:50:41;;;;;;;24.38;12.40;;;;;;;3.89;58.63;94416.38;4943585;29;20031;-90
2022/03/07 11:53:07;;;;;;;23.40;12.30;;;;;;;4.07;58.74;94410.31;4959375;29;20042;-89
2022/03/07 11:55:32;;;;;;;27.95;11.40;;;;;;;4.22;57.94;94403.91;4943858;29;20032;-89
2022/03/07 11:58:01;;;;;;;26.23;13.25;;;;;;;4.27;57.94;94400.63;4959598;29;20046;-89
2022/03/07 12:00:32;;;;;;;29.92;13.35;;;;;;;4.05;56.92;94398.59;4959206;29;20027;-89
2022/03/07 12:02:59;;;;;;;28.73;13.57;;;;;;;3.80;57.28;94396.97;4942327;29;20181;-89
2022/03/07 12:05:31;;;;;;;25.25;12.95;;;;;;;3.80;57.18;94391.78;4959489;29;20039;-88
2022/03/07 12:08:18;;;;;;;26.38;12.65;;;;;;;3.92;59.11;94397.78;4959373;29;20035;-89
2022/03/07 12:10:54;;;;;;;30.35;12.90;;;;;;;4.14;56.80;94380.88;4959041;29;20027;-89
2022/03/07 12:13:20;;;;;;;28.38;13.35;;;;;;;3.52;56.74;94385.47;4943508;29;20129;-89
2022/03/07 12:15:52;;;;;;;28.02;12.75;;;;;;;4.13;57.55;94374.94;4943350;29;20178;-89
2022/03/07 12:18:19;;;;;;;25.70;12.45;;;;;;;3.92;55.80;94384.06;4943029;28;20035;-89
2022/03/07 12:21:00;;;;;;;30.85;13.77;;;;;;;3.65;58.93;94367.09;4942601;29;20193;-89
2022/03/07 12:23:29;;;;;;;29.13;13.23;;;;;;;3.89;56.83;94366.38;4943221;29;20031;-89
2022/03/07 12:26:01;;;;;;;29.02;13.02;;;;;;;4.07;58.06;94365.44;4942968;29;20086;-89
2022/03/07 12:28:31;;;;;;;24.88;12.38;;;;;;;4.60;62.01;94371.50;4958826;29;20038;-89
2022/03/07 12:30:57;;;;;;;23.48;12.05;;;;;;;4.84;61.30;94365.44;4958744;29;20059;-89
2022/03/07 12:33:22;;;;;;;26.88;14.00;;;;;;;4.54;61.87;94362.00;4943516;29;20058;-90
2022/03/07 12:35:48;;;;;;;28.98;14.15;;;;;;;4.25;59.23;94351.56;4958943;29;20054;-89
2022/03/07 12:38:13;;;;;;;25.38;13.55;;;;;;;4.69;57.20;94355.56;4958906;29;20034;-89
2022/03/07 12:40:39;;;;;;;26.65;12.52;;;;;;;4.93;57.93;94351.06;4942682;29;20031;-88
2022/03/07 12:43:05;;;;;;;27.38;13.88;;;;;;;4.87;56.60;94346.81;4958834;29;20065;-89
2022/03/07 12:45:33;;;;;;;24.80;12.57;;;;;;;4.90;56.37;94348.94;4958761;29;20027;-89
2022/03/07 12:48:01;;;;;;;26.48;13.13;;;;;;;4.41;54.73;94351.88;4942844;29;20035;-89
2022/03/07 12:50:32;;;;;;;24.77;12.73;;;;;;;4.66;54.64;94354.19;4958283;29;20125;-90
2022/03/07 12:52:57;;;;;;;26.80;13.55;;;;;;;4.74;54.82;94348.66;4942887;29;20035;-89
2022/03/07 12:55:23;;;;;;;25.27;13.52;;;;;;;4.92;53.98;94349.50;4958795;29;20094;-89
2022/03/07 12:57:58;;;;;;;24.63;12.25;;;;;;;4.75;54.17;94342.44;4942640;29;20041;-89
2022/03/07 13:00:24;;;;;;;22.58;11.80;;;;;;;5.18;54.32;94342.97;4942589;29;20484;-89
2022/03/07 13:02:50;;;;;;;25.02;12.55;;;;;;;4.60;53.45;94340.34;4942678;29;20039;-89
2022/03/07 13:05:18;;;;;;;31.35;13.27;;;;;;;4.80;52.97;94334.75;4958387;29;20138;-89
2022/03/07 13:08:00;;;;;;;26.10;12.32;;;;;;;4.92;52.15;94333.91;4959438;29;20054;-89
2022/03/07 13:10:26;;;;;;;35.58;12.52;;;;;;;4.97;52.22;94336.63;4942184;29;20038;-89
2022/03/07 13:12:57;;;;;;;23.40;11.95;;;;;;;4.97;52.40;94338.41;4942479;29;20089;-89
2022/03/07 13:15:24;;;;;;;28.17;14.25;;;;;;;4.41;52.82;94331.13;4942698;29;20031;-89
2022/03/07 13:18:01;;;;;;;24.20;12.80;;;;;;;4.73;53.08;94336.69;4942713;29;20107;-89
2022/03/07 13:20:26;;;;;;;27.13;13.45;;;;;;;5.16;54.32;94326.81;4957441;28;20030;-90
2022/03/07 13:22:52;;;;;;;27.02;12.50;;;;;;;5.31;51.71;94323.69;4977863;28;20084;-89
2022/03/07 13:25:17;;;;;;;25.90;13.00;;;;;;;4.97;53.03;94328.03;4945822;28;20035;-89
2022/03/07 13:27:47;;;;;;;30.20;13.63;;;;;;;5.26;52.89;94317.63;4945647;28;20038;-90
2022/03/07 13:30:13;;;;;;;25.13;12.23;;;;;;;5.27;54.34;94311.41;4944169;28;20355;-89
2022/03/07 13:32:40;;;;;;;26.10;13.18;;;;;;;5.49;52.00;94311.50;4977504;28;20039;-88
2022/03/07 13:35:07;;;;;;;25.05;13.45;;;;;;;5.65;52.42;94313.28;4945158;28;20046;-89
2022/03/07 13:37:44;;;;;;;27.17;13.27;;;;;;;5.59;51.90;94313.44;4976956;28;20495;-89
2022/03/07 13:40:12;;;;;;;24.88;13.18;;;;;;;4.99;53.48;94311.22;4960977;28;20038;-89
2022/03/07 13:42:43;;;;;;;30.02;13.85;;;;;;;5.03;53.00;94307.13;4961399;28;20034;-89
2022/03/07 13:45:14;;;;;;;31.27;14.30;;;;;;;5.61;53.74;94311.44;4961214;28;20058;-89
2022/03/07 13:47:40;;;;;;;25.15;13.32;;;;;;;5.44;53.59;94298.44;4945145;28;20096;-89
2022/03/07 13:50:12;;;;;;;25.35;12.82;;;;;;;4.64;53.60;94299.94;4960713;28;20045;-89
2022/03/07 13:52:40;;;;;;;29.25;14.15;;;;;;;4.93;53.26;94288.75;4976987;28;20088;-88
2022/03/07 13:55:15;;;;;;;31.30;14.13;;;;;;;4.88;52.50;94302.47;4960804;28;20073;-88
2022/03/07 13:57:43;;;;;;;25.60;13.80;;;;;;;5.29;52.49;94294.56;4960937;28;20038;-89
2022/03/07 14:00:20;;;;;;;26.45;13.98;;;;;;;5.01;52.04;94288.38;4960482;28;20038;-89
2022/03/07 14:02:48;;;;;;;29.08;13.85;;;;;;;4.99;52.57;94285.25;4960705;28;20058;-90
2022/03/07 14:05:15;;;;;;;25.45;13.05;;;;;;;5.41;52.76;94289.28;4944743;28;20343;-89
2022/03/07 14:07:45;;;;;;;29.52;14.10;;;;;;;5.49;51.73;94281.09;4961192;28;20367;-89
2022/03/07 14:10:16;;;;;;;27.10;13.02;;;;;;;5.55;51.65;94271.56;4960770;28;20167;-90
2022/03/07 14:12:50;;;;;;;30.77;13.48;;;;;;;5.16;51.57;94280.03;4976959;28;20027;-90
2022/03/07 14:15:28;;;;;;;28.40;13.65;;;;;;;5.60;53.04;94271.63;4976705;28;20377;-89